sensor_id;sensor_type;location;lat;lon;timestamp;pressure;altitude;pressure_sealevel;temperature;humidity
11712;BME280;5912;51.034;6.984;2023-03-31T00:02:01;56408.41;;;-142.13;57.85
11712;BME280;5912;51.034;6.984;2023-03-31T00:04:31;56410.41;;;-142.13;58.31
11712;BME280;5912;51.034;6.984;2023-03-31T00:06:57;56414.41;;;-142.13;58.41
11712;BME280;5912;51.034;6.984;2023-03-31T00:09:22;56396.41;;;-142.13;58.90
11712;BME280;5912;51.034;6.984;2023-03-31T00:11:48;56388.38;;;-142.13;59.42
11712;BME280;5912;51.034;6.984;2023-03-31T00:14:15;56412.41;;;-142.13;59.53
11712;BME280;5912;51.034;6.984;2023-03-31T00:16:42;56418.44;;;-142.13;60.16
11712;BME280;5912;51.034;6.984;2023-03-31T00:19:08;56430.44;;;-142.13;60.09
11712;BME280;5912;51.034;6.984;2023-03-31T00:21:45;56404.41;;;-142.13;60.78
11712;BME280;5912;51.034;6.984;2023-03-31T00:24:12;56394.38;;;-142.13;61.41
11712;BME280;5912;51.034;6.984;2023-03-31T00:26:37;56406.41;;;-142.13;62.14
11712;BME280;5912;51.034;6.984;2023-03-31T00:29:04;56420.44;;;-142.13;62.54
11712;BME280;5912;51.034;6.984;2023-03-31T00:31:30;56440.47;;;-142.13;63.46
11712;BME280;5912;51.034;6.984;2023-03-31T00:33:56;56428.44;;;-142.13;64.56
11712;BME280;5912;51.034;6.984;2023-03-31T00:36:22;56422.44;;;-142.13;65.06
11712;BME280;5912;51.034;6.984;2023-03-31T00:38:55;56434.44;;;-142.13;65.46
11712;BME280;5912;51.034;6.984;2023-03-31T00:41:25;56416.44;;;-142.13;66.03
11712;BME280;5912;51.034;6.984;2023-03-31T00:44:07;56452.47;;;-142.13;67.02
11712;BME280;5912;51.034;6.984;2023-03-31T00:46:36;56444.47;;;-142.13;67.53
11712;BME280;5912;51.034;6.984;2023-03-31T00:49:35;56426.44;;;-142.13;68.02
11712;BME280;5912;51.034;6.984;2023-03-31T00:52:16;56420.44;;;-142.13;68.33
11712;BME280;5912;51.034;6.984;2023-03-31T00:54:46;56440.47;;;-142.13;68.68
11712;BME280;5912;51.034;6.984;2023-03-31T00:57:14;56456.50;;;-142.13;68.26
11712;BME280;5912;51.034;6.984;2023-03-31T00:59:45;56446.47;;;-142.13;68.32
11712;BME280;5912;51.034;6.984;2023-03-31T01:02:13;56410.41;;;-142.13;68.28
11712;BME280;5912;51.034;6.984;2023-03-31T01:04:44;56436.47;;;-142.13;68.04
11712;BME280;5912;51.034;6.984;2023-03-31T01:07:17;56440.47;;;-142.13;68.15
11712;BME280;5912;51.034;6.984;2023-03-31T01:09:47;56440.47;;;-142.13;67.95
11712;BME280;5912;51.034;6.984;2023-03-31T01:12:16;56594.72;;;-142.13;68.33
11712;BME280;5912;51.034;6.984;2023-03-31T01:14:42;56458.50;;;-142.13;68.04
11712;BME280;5912;51.034;6.984;2023-03-31T01:17:07;56448.47;;;-142.13;68.00
11712;BME280;5912;51.034;6.984;2023-03-31T01:51:05;56460.50;;;-142.13;69.90
11712;BME280;5912;51.034;6.984;2023-03-31T01:53:54;56426.44;;;-142.13;70.29
11712;BME280;5912;51.034;6.984;2023-03-31T01:59:10;56452.47;;;-142.13;70.39
11712;BME280;5912;51.034;6.984;2023-03-31T02:01:55;56456.50;;;-142.13;70.18
11712;BME280;5912;51.034;6.984;2023-03-31T02:04:25;56452.47;;;-142.13;70.18
11712;BME280;5912;51.034;6.984;2023-03-31T02:06:57;56464.50;;;-142.13;70.27
11712;BME280;5912;51.034;6.984;2023-03-31T02:09:27;56464.50;;;-142.13;70.67
11712;BME280;5912;51.034;6.984;2023-03-31T02:11:55;56436.47;;;-142.13;70.80
11712;BME280;5912;51.034;6.984;2023-03-31T02:14:25;56460.50;;;-142.13;71.28
11712;BME280;5912;51.034;6.984;2023-03-31T02:16:56;56466.50;;;-142.13;71.68
11712;BME280;5912;51.034;6.984;2023-03-31T02:19:24;56436.47;;;-142.13;71.59
11712;BME280;5912;51.034;6.984;2023-03-31T02:21:51;56456.50;;;-142.13;71.84
11712;BME280;5912;51.034;6.984;2023-03-31T02:24:21;56454.47;;;-142.13;71.94
11712;BME280;5912;51.034;6.984;2023-03-31T02:29:29;56428.44;;;-142.13;72.53
11712;BME280;5912;51.034;6.984;2023-03-31T02:35:02;56460.50;;;-142.13;72.85
11712;BME280;5912;51.034;6.984;2023-03-31T02:37:28;56450.47;;;-142.13;72.05
11712;BME280;5912;51.034;6.984;2023-03-31T02:39:58;56476.53;;;-142.13;72.12
11712;BME280;5912;51.034;6.984;2023-03-31T02:42:24;56440.47;;;-142.13;71.99
11712;BME280;5912;51.034;6.984;2023-03-31T02:44:49;56470.50;;;-142.13;72.36
11712;BME280;5912;51.034;6.984;2023-03-31T02:47:17;56462.50;;;-142.13;72.45
11712;BME280;5912;51.034;6.984;2023-03-31T02:49:55;56448.47;;;-142.13;72.67
11712;BME280;5912;51.034;6.984;2023-03-31T02:52:33;56484.53;;;-142.13;72.92
11712;BME280;5912;51.034;6.984;2023-03-31T03:05:34;56452.47;;;-142.13;73.87
11712;BME280;5912;51.034;6.984;2023-03-31T03:08:25;56456.50;;;-142.13;74.06
11712;BME280;5912;51.034;6.984;2023-03-31T03:11:01;56484.53;;;-142.13;74.29
11712;BME280;5912;51.034;6.984;2023-03-31T03:13:41;56498.56;;;-142.13;74.41
11712;BME280;5912;51.034;6.984;2023-03-31T03:16:15;56488.53;;;-142.13;74.69
11712;BME280;5912;51.034;6.984;2023-03-31T03:18:59;56464.50;;;-142.13;74.81
11712;BME280;5912;51.034;6.984;2023-03-31T03:21:25;56490.53;;;-142.13;74.82
11712;BME280;5912;51.034;6.984;2023-03-31T03:23:51;56448.47;;;-142.13;74.85
11712;BME280;5912;51.034;6.984;2023-03-31T03:26:17;56524.59;;;-142.13;74.91
11712;BME280;5912;51.034;6.984;2023-03-31T03:28:46;56472.50;;;-142.13;75.18
11712;BME280;5912;51.034;6.984;2023-03-31T03:31:27;56460.50;;;-142.13;75.16
11712;BME280;5912;51.034;6.984;2023-03-31T03:33:52;56490.53;;;-142.13;75.38
11712;BME280;5912;51.034;6.984;2023-03-31T03:36:18;56454.47;;;-142.13;75.44
11712;BME280;5912;51.034;6.984;2023-03-31T03:38:43;56480.53;;;-142.13;75.58
11712;BME280;5912;51.034;6.984;2023-03-31T03:41:08;56468.50;;;-142.13;75.71
11712;BME280;5912;51.034;6.984;2023-03-31T03:43:34;56470.50;;;-142.13;75.50
11712;BME280;5912;51.034;6.984;2023-03-31T03:45:59;56486.53;;;-142.13;75.62
11712;BME280;5912;51.034;6.984;2023-03-31T03:48:25;56482.53;;;-142.13;75.58
11712;BME280;5912;51.034;6.984;2023-03-31T03:50:51;56494.56;;;-142.13;75.67
11712;BME280;5912;51.034;6.984;2023-03-31T03:53:17;56500.56;;;-142.13;75.74
11712;BME280;5912;51.034;6.984;2023-03-31T03:55:43;56478.53;;;-142.13;75.65
11712;BME280;5912;51.034;6.984;2023-03-31T03:58:09;56498.56;;;-142.13;75.79
11712;BME280;5912;51.034;6.984;2023-03-31T04:00:34;56478.53;;;-142.13;75.88
11712;BME280;5912;51.034;6.984;2023-03-31T04:03:00;56458.50;;;-142.13;75.85
11712;BME280;5912;51.034;6.984;2023-03-31T04:05:26;56464.50;;;-142.13;75.98
11712;BME280;5912;51.034;6.984;2023-03-31T04:08:03;56440.47;;;-142.13;75.71
11712;BME280;5912;51.034;6.984;2023-03-31T04:10:30;56480.53;;;-142.13;75.37
11712;BME280;5912;51.034;6.984;2023-03-31T04:12:56;56476.53;;;-142.13;75.38
11712;BME280;5912;51.034;6.984;2023-03-31T04:15:21;56456.50;;;-142.13;75.05
11712;BME280;5912;51.034;6.984;2023-03-31T04:17:46;56448.47;;;-142.13;75.21
11712;BME280;5912;51.034;6.984;2023-03-31T04:20:15;56446.47;;;-142.13;75.34
11712;BME280;5912;51.034;6.984;2023-03-31T04:22:41;56480.53;;;-142.13;75.34
11712;BME280;5912;51.034;6.984;2023-03-31T04:25:08;56466.50;;;-142.13;75.41
11712;BME280;5912;51.034;6.984;2023-03-31T04:27:45;56444.47;;;-142.13;75.37
11712;BME280;5912;51.034;6.984;2023-03-31T04:30:14;56442.47;;;-142.13;75.40
11712;BME280;5912;51.034;6.984;2023-03-31T04:32:59;56468.50;;;-142.13;75.33
11712;BME280;5912;51.034;6.984;2023-03-31T04:35:27;56464.50;;;-142.13;75.08
11712;BME280;5912;51.034;6.984;2023-03-31T04:38:06;56496.56;;;-142.13;75.15
11712;BME280;5912;51.034;6.984;2023-03-31T04:40:33;56466.50;;;-142.13;75.05
11712;BME280;5912;51.034;6.984;2023-03-31T04:42:59;56472.50;;;-142.13;75.32
11712;BME280;5912;51.034;6.984;2023-03-31T04:45:25;56462.50;;;-142.13;75.25
11712;BME280;5912;51.034;6.984;2023-03-31T04:47:50;56468.50;;;-142.13;75.10
11712;BME280;5912;51.034;6.984;2023-03-31T04:50:15;56494.56;;;-142.13;74.75
11712;BME280;5912;51.034;6.984;2023-03-31T04:52:41;56456.50;;;-142.13;74.47
11712;BME280;5912;51.034;6.984;2023-03-31T04:55:06;56458.50;;;-142.13;74.41
11712;BME280;5912;51.034;6.984;2023-03-31T04:57:32;56482.53;;;-142.13;73.98
11712;BME280;5912;51.034;6.984;2023-03-31T04:59:57;56496.56;;;-142.13;73.78
11712;BME280;5912;51.034;6.984;2023-03-31T05:02:23;56498.56;;;-142.13;73.74
11712;BME280;5912;51.034;6.984;2023-03-31T05:04:51;56496.56;;;-142.13;73.55
11712;BME280;5912;51.034;6.984;2023-03-31T05:07:17;56448.47;;;-142.13;73.38
11712;BME280;5912;51.034;6.984;2023-03-31T05:09:43;56466.50;;;-142.13;73.46
11712;BME280;5912;51.034;6.984;2023-03-31T05:12:09;56496.56;;;-142.13;73.25
11712;BME280;5912;51.034;6.984;2023-03-31T05:14:34;56478.53;;;-142.13;72.92
11712;BME280;5912;51.034;6.984;2023-03-31T05:16:59;56462.50;;;-142.13;72.80
11712;BME280;5912;51.034;6.984;2023-03-31T05:19:25;56534.63;;;-142.13;72.61
11712;BME280;5912;51.034;6.984;2023-03-31T05:21:50;56458.50;;;-142.13;72.84
11712;BME280;5912;51.034;6.984;2023-03-31T05:24:16;56482.53;;;-142.13;72.61
11712;BME280;5912;51.034;6.984;2023-03-31T05:26:41;56464.50;;;-142.13;73.04
11712;BME280;5912;51.034;6.984;2023-03-31T05:29:12;56480.53;;;-142.13;72.87
11712;BME280;5912;51.034;6.984;2023-03-31T05:31:37;56474.53;;;-142.13;72.61
11712;BME280;5912;51.034;6.984;2023-03-31T05:34:02;56514.59;;;-142.13;72.49
11712;BME280;5912;51.034;6.984;2023-03-31T05:36:27;56460.50;;;-142.13;72.30
11712;BME280;5912;51.034;6.984;2023-03-31T05:38:53;56484.53;;;-142.13;71.83
11712;BME280;5912;51.034;6.984;2023-03-31T05:41:18;56486.53;;;-142.13;72.02
11712;BME280;5912;51.034;6.984;2023-03-31T05:43:44;56500.56;;;-142.13;71.97
11712;BME280;5912;51.034;6.984;2023-03-31T05:46:10;56488.53;;;-142.13;71.68
11712;BME280;5912;51.034;6.984;2023-03-31T05:48:35;56486.53;;;-142.13;71.52
11712;BME280;5912;51.034;6.984;2023-03-31T05:51:02;56462.50;;;-142.13;71.65
11712;BME280;5912;51.034;6.984;2023-03-31T05:53:28;56492.53;;;-142.13;71.68
11712;BME280;5912;51.034;6.984;2023-03-31T05:56:01;56484.53;;;-142.13;71.70
11712;BME280;5912;51.034;6.984;2023-03-31T05:58:27;56474.53;;;-142.13;71.61
11712;BME280;5912;51.034;6.984;2023-03-31T06:01:19;56462.50;;;-142.13;71.30
11712;BME280;5912;51.034;6.984;2023-03-31T06:03:47;56470.50;;;-142.13;71.04
11712;BME280;5912;51.034;6.984;2023-03-31T06:06:12;56456.50;;;-142.13;71.32
11712;BME280;5912;51.034;6.984;2023-03-31T06:08:39;56482.53;;;-142.13;70.85
11712;BME280;5912;51.034;6.984;2023-03-31T06:11:09;56474.53;;;-142.13;70.77
11712;BME280;5912;51.034;6.984;2023-03-31T06:13:35;56470.50;;;-142.13;70.79
11712;BME280;5912;51.034;6.984;2023-03-31T06:16:01;56496.56;;;-142.13;70.98
11712;BME280;5912;51.034;6.984;2023-03-31T06:18:29;56450.47;;;-142.13;71.19
11712;BME280;5912;51.034;6.984;2023-03-31T06:20:55;56468.50;;;-142.13;70.72
11712;BME280;5912;51.034;6.984;2023-03-31T06:23:22;56480.53;;;-142.13;70.58
11712;BME280;5912;51.034;6.984;2023-03-31T06:25:47;56486.53;;;-142.13;67.95
11712;BME280;5912;51.034;6.984;2023-03-31T06:28:13;56486.53;;;-142.13;66.44
11712;BME280;5912;51.034;6.984;2023-03-31T06:30:39;56440.47;;;-142.13;65.51
11712;BME280;5912;51.034;6.984;2023-03-31T06:33:04;56444.47;;;-142.13;65.56
11712;BME280;5912;51.034;6.984;2023-03-31T06:35:29;56478.53;;;-142.13;65.11
11712;BME280;5912;51.034;6.984;2023-03-31T06:37:55;56464.50;;;-142.13;64.45
11712;BME280;5912;51.034;6.984;2023-03-31T06:40:21;56450.47;;;-142.13;64.08
11712;BME280;5912;51.034;6.984;2023-03-31T06:42:47;56454.47;;;-142.13;64.07
11712;BME280;5912;51.034;6.984;2023-03-31T06:45:12;56434.44;;;-142.13;65.09
11712;BME280;5912;51.034;6.984;2023-03-31T06:47:37;56430.44;;;-142.13;64.83
11712;BME280;5912;51.034;6.984;2023-03-31T06:50:04;56474.53;;;-142.13;65.31
11712;BME280;5912;51.034;6.984;2023-03-31T06:52:30;56444.47;;;-142.13;64.38
11712;BME280;5912;51.034;6.984;2023-03-31T06:54:56;56448.47;;;-142.13;64.17
11712;BME280;5912;51.034;6.984;2023-03-31T06:57:21;56426.44;;;-142.13;65.21
11712;BME280;5912;51.034;6.984;2023-03-31T06:59:47;56440.47;;;-142.13;64.80
11712;BME280;5912;51.034;6.984;2023-03-31T07:02:12;56436.47;;;-142.13;64.64
11712;BME280;5912;51.034;6.984;2023-03-31T07:04:37;56460.50;;;-142.13;64.34
11712;BME280;5912;51.034;6.984;2023-03-31T07:07:02;56448.47;;;-142.13;65.06
11712;BME280;5912;51.034;6.984;2023-03-31T07:09:28;56444.47;;;-142.13;62.75
11712;BME280;5912;51.034;6.984;2023-03-31T07:11:53;56434.44;;;-142.13;62.59
11712;BME280;5912;51.034;6.984;2023-03-31T07:14:18;56424.44;;;-142.13;61.92
11712;BME280;5912;51.034;6.984;2023-03-31T07:16:44;56432.44;;;-142.13;61.71
11712;BME280;5912;51.034;6.984;2023-03-31T07:19:09;56412.41;;;-142.13;61.32
11712;BME280;5912;51.034;6.984;2023-03-31T07:21:36;56436.47;;;-142.13;60.52
11712;BME280;5912;51.034;6.984;2023-03-31T07:24:01;56438.47;;;-142.13;60.04
11712;BME280;5912;51.034;6.984;2023-03-31T07:26:27;56432.44;;;-142.13;59.75
11712;BME280;5912;51.034;6.984;2023-03-31T07:28:52;56424.44;;;-142.13;59.57
11712;BME280;5912;51.034;6.984;2023-03-31T07:31:21;56412.41;;;-142.13;59.07
11712;BME280;5912;51.034;6.984;2023-03-31T07:33:46;56412.41;;;-142.13;58.24
11712;BME280;5912;51.034;6.984;2023-03-31T07:36:33;56418.44;;;-142.13;58.73
11712;BME280;5912;51.034;6.984;2023-03-31T07:38:58;56378.38;;;-142.13;56.79
11712;BME280;5912;51.034;6.984;2023-03-31T07:41:24;56604.72;;;-142.13;56.55
11712;BME280;5912;51.034;6.984;2023-03-31T07:43:50;56420.44;;;-142.13;55.92
11712;BME280;5912;51.034;6.984;2023-03-31T07:46:24;56404.41;;;-142.13;56.81
11712;BME280;5912;51.034;6.984;2023-03-31T07:48:51;56406.41;;;-142.13;55.30
11712;BME280;5912;51.034;6.984;2023-03-31T07:51:19;56364.34;;;-142.13;54.85
11712;BME280;5912;51.034;6.984;2023-03-31T07:53:45;56332.28;;;-142.13;53.25
11712;BME280;5912;51.034;6.984;2023-03-31T07:56:11;56348.31;;;-142.13;52.72
11712;BME280;5912;51.034;6.984;2023-03-31T07:58:37;56368.34;;;-142.13;52.24
11712;BME280;5912;51.034;6.984;2023-03-31T08:01:02;56346.31;;;-142.13;49.93
11712;BME280;5912;51.034;6.984;2023-03-31T08:03:52;56342.31;;;-142.13;48.92
11712;BME280;5912;51.034;6.984;2023-03-31T08:06:21;56308.25;;;-142.13;48.50
11712;BME280;5912;51.034;6.984;2023-03-31T08:08:47;56310.25;;;-142.13;47.97
11712;BME280;5912;51.034;6.984;2023-03-31T08:11:13;56324.28;;;-142.13;48.51
11712;BME280;5912;51.034;6.984;2023-03-31T08:13:51;56326.28;;;-142.13;49.72
11712;BME280;5912;51.034;6.984;2023-03-31T08:16:16;56368.34;;;-142.13;50.73
11712;BME280;5912;51.034;6.984;2023-03-31T08:18:42;56392.38;;;-142.13;50.70
11712;BME280;5912;51.034;6.984;2023-03-31T08:21:07;56362.34;;;-142.13;51.27
11712;BME280;5912;51.034;6.984;2023-03-31T08:23:34;56356.31;;;-142.13;51.76
11712;BME280;5912;51.034;6.984;2023-03-31T08:26:07;56382.38;;;-142.13;52.09
11712;BME280;5912;51.034;6.984;2023-03-31T08:28:33;56376.34;;;-142.13;53.03
11712;BME280;5912;51.034;6.984;2023-03-31T08:31:11;56442.47;;;-142.13;52.72
11712;BME280;5912;51.034;6.984;2023-03-31T08:33:36;56408.41;;;-142.13;52.52
11712;BME280;5912;51.034;6.984;2023-03-31T08:36:03;56364.34;;;-142.13;53.25
11712;BME280;5912;51.034;6.984;2023-03-31T08:38:30;56360.34;;;-142.13;52.54
11712;BME280;5912;51.034;6.984;2023-03-31T08:41:02;56380.38;;;-142.13;52.20
11712;BME280;5912;51.034;6.984;2023-03-31T08:43:36;56344.31;;;-142.13;50.53
11712;BME280;5912;51.034;6.984;2023-03-31T08:46:05;56316.25;;;-142.13;49.64
11712;BME280;5912;51.034;6.984;2023-03-31T08:48:40;56330.28;;;-142.13;48.98
11712;BME280;5912;51.034;6.984;2023-03-31T08:51:20;56332.28;;;-142.13;48.21
11712;BME280;5912;51.034;6.984;2023-03-31T08:53:51;56318.25;;;-142.13;48.24
11712;BME280;5912;51.034;6.984;2023-03-31T08:56:21;56324.28;;;-142.13;48.72
11712;BME280;5912;51.034;6.984;2023-03-31T08:58:49;56328.28;;;-142.13;47.84
11712;BME280;5912;51.034;6.984;2023-03-31T09:13:21;56178.03;;;-142.13;40.80
11712;BME280;5912;51.034;6.984;2023-03-31T09:16:03;56164.03;;;-142.13;39.61
11712;BME280;5912;51.034;6.984;2023-03-31T09:18:33;56198.06;;;-142.13;38.59
11712;BME280;5912;51.034;6.984;2023-03-31T09:21:27;56192.06;;;-142.13;38.93
11712;BME280;5912;51.034;6.984;2023-03-31T09:24:04;56186.06;;;-142.13;38.93
11712;BME280;5912;51.034;6.984;2023-03-31T09:28:59;56238.13;;;-142.13;40.50
11712;BME280;5912;51.034;6.984;2023-03-31T09:31:27;56222.13;;;-142.13;40.06
11712;BME280;5912;51.034;6.984;2023-03-31T09:33:58;56220.13;;;-142.13;40.21
11712;BME280;5912;51.034;6.984;2023-03-31T09:36:25;56232.13;;;-142.13;40.86
11712;BME280;5912;51.034;6.984;2023-03-31T09:38:51;56226.13;;;-142.13;40.45
11712;BME280;5912;51.034;6.984;2023-03-31T09:41:20;56274.19;;;-142.13;40.57
11712;BME280;5912;51.034;6.984;2023-03-31T09:43:46;56248.16;;;-142.13;41.46
11712;BME280;5912;51.034;6.984;2023-03-31T09:46:23;56268.19;;;-142.13;40.75
11712;BME280;5912;51.034;6.984;2023-03-31T09:51:45;56252.16;;;-142.13;41.29
11712;BME280;5912;51.034;6.984;2023-03-31T09:54:19;56264.19;;;-142.13;41.88
11712;BME280;5912;51.034;6.984;2023-03-31T09:56:49;56224.13;;;-142.13;40.28
11712;BME280;5912;51.034;6.984;2023-03-31T09:59:19;56266.19;;;-142.13;38.01
11712;BME280;5912;51.034;6.984;2023-03-31T10:01:49;56236.13;;;-142.13;38.25
11712;BME280;5912;51.034;6.984;2023-03-31T10:04:23;56210.09;;;-142.13;38.12
11712;BME280;5912;51.034;6.984;2023-03-31T10:06:49;56200.09;;;-142.13;37.62
11712;BME280;5912;51.034;6.984;2023-03-31T10:09:18;56210.09;;;-142.13;36.98
11712;BME280;5912;51.034;6.984;2023-03-31T10:12:15;56190.06;;;-142.13;36.16
11712;BME280;5912;51.034;6.984;2023-03-31T10:14:47;56182.06;;;-142.13;36.45
11712;BME280;5912;51.034;6.984;2023-03-31T10:17:20;56192.06;;;-142.13;35.61
11712;BME280;5912;51.034;6.984;2023-03-31T10:19:47;56172.03;;;-142.13;36.42
11712;BME280;5912;51.034;6.984;2023-03-31T10:22:17;56190.06;;;-142.13;37.18
11712;BME280;5912;51.034;6.984;2023-03-31T10:24:51;56194.06;;;-142.13;36.83
11712;BME280;5912;51.034;6.984;2023-03-31T10:27:20;56192.06;;;-142.13;36.92
11712;BME280;5912;51.034;6.984;2023-03-31T10:29:47;56206.09;;;-142.13;36.83
11712;BME280;5912;51.034;6.984;2023-03-31T10:32:29;56202.09;;;-142.13;36.47
11712;BME280;5912;51.034;6.984;2023-03-31T10:34:57;56192.06;;;-142.13;36.94
11712;BME280;5912;51.034;6.984;2023-03-31T10:37:27;56184.06;;;-142.13;36.52
11712;BME280;5912;51.034;6.984;2023-03-31T10:39:58;56152.00;;;-142.13;36.99
11712;BME280;5912;51.034;6.984;2023-03-31T10:42:24;56156.00;;;-142.13;35.61
11712;BME280;5912;51.034;6.984;2023-03-31T10:45:11;56144.00;;;-142.13;34.72
11712;BME280;5912;51.034;6.984;2023-03-31T10:47:39;56172.03;;;-142.13;35.07
11712;BME280;5912;51.034;6.984;2023-03-31T10:50:13;56188.06;;;-142.13;35.27
11712;BME280;5912;51.034;6.984;2023-03-31T10:52:47;56164.03;;;-142.13;36.58
11712;BME280;5912;51.034;6.984;2023-03-31T10:55:21;56204.09;;;-142.13;37.10
11712;BME280;5912;51.034;6.984;2023-03-31T10:57:55;56232.13;;;-142.13;37.83
11712;BME280;5912;51.034;6.984;2023-03-31T11:00:31;56226.13;;;-142.13;39.38
11712;BME280;5912;51.034;6.984;2023-03-31T11:05:55;56276.19;;;-142.13;43.49
11712;BME280;5912;51.034;6.984;2023-03-31T11:13:35;56294.22;;;-142.13;43.48
11712;BME280;5912;51.034;6.984;2023-03-31T11:24:56;56368.34;;;-142.13;53.32
11712;BME280;5912;51.034;6.984;2023-03-31T11:30:27;56400.41;;;-142.13;57.38
11712;BME280;5912;51.034;6.984;2023-03-31T11:36:04;56366.34;;;-142.13;58.15
11712;BME280;5912;51.034;6.984;2023-03-31T11:39:31;56368.34;;;-142.13;57.26
11712;BME280;5912;51.034;6.984;2023-03-31T11:41:48;56376.34;;;-142.13;57.00
11712;BME280;5912;51.034;6.984;2023-03-31T11:44:16;56350.31;;;-142.13;55.27
11712;BME280;5912;51.034;6.984;2023-03-31T11:46:52;56292.22;;;-142.13;52.15
11712;BME280;5912;51.034;6.984;2023-03-31T11:49:23;56328.28;;;-142.13;51.20
11712;BME280;5912;51.034;6.984;2023-03-31T11:52:02;56332.28;;;-142.13;50.04
11712;BME280;5912;51.034;6.984;2023-03-31T11:54:38;56292.22;;;-142.13;49.03
11712;BME280;5912;51.034;6.984;2023-03-31T11:57:17;56328.28;;;-142.13;48.91
11712;BME280;5912;51.034;6.984;2023-03-31T11:59:48;56314.25;;;-142.13;48.81
11712;BME280;5912;51.034;6.984;2023-03-31T12:02:22;56296.22;;;-142.13;48.13
11712;BME280;5912;51.034;6.984;2023-03-31T12:04:53;56318.25;;;-142.13;48.45
11712;BME280;5912;51.034;6.984;2023-03-31T12:07:33;56284.22;;;-142.13;47.54
11712;BME280;5912;51.034;6.984;2023-03-31T12:10:22;56250.16;;;-142.13;44.36
11712;BME280;5912;51.034;6.984;2023-03-31T12:12:58;56292.22;;;-142.13;44.41
11712;BME280;5912;51.034;6.984;2023-03-31T12:15:32;56290.22;;;-142.13;45.24
11712;BME280;5912;51.034;6.984;2023-03-31T12:18:18;56276.19;;;-142.13;44.32
11712;BME280;5912;51.034;6.984;2023-03-31T12:20:55;56302.25;;;-142.13;44.71
11712;BME280;5912;51.034;6.984;2023-03-31T12:23:24;56290.22;;;-142.13;45.43
11712;BME280;5912;51.034;6.984;2023-03-31T12:28:21;56280.22;;;-142.13;42.95
11712;BME280;5912;51.034;6.984;2023-03-31T12:30:47;56308.25;;;-142.13;44.06
11712;BME280;5912;51.034;6.984;2023-03-31T12:33:46;56310.25;;;-142.13;45.00
11712;BME280;5912;51.034;6.984;2023-03-31T12:36:32;56260.19;;;-142.13;45.91
11712;BME280;5912;51.034;6.984;2023-03-31T12:41:44;56368.34;;;-142.13;47.31
11712;BME280;5912;51.034;6.984;2023-03-31T12:44:56;56334.28;;;-142.13;48.21
11712;BME280;5912;51.034;6.984;2023-03-31T12:55:35;56330.28;;;-142.13;46.47
11712;BME280;5912;51.034;6.984;2023-03-31T13:08:59;56304.25;;;-142.13;46.22
11712;BME280;5912;51.034;6.984;2023-03-31T13:14:05;56294.22;;;-142.13;43.46
11712;BME280;5912;51.034;6.984;2023-03-31T13:16:32;56310.25;;;-142.13;43.17
11712;BME280;5912;51.034;6.984;2023-03-31T13:18:59;56302.25;;;-142.13;43.39
11712;BME280;5912;51.034;6.984;2023-03-31T13:21:25;56294.22;;;-142.13;41.59
11712;BME280;5912;51.034;6.984;2023-03-31T13:23:52;56314.25;;;-142.13;41.92
11712;BME280;5912;51.034;6.984;2023-03-31T13:34:36;56262.19;;;-142.13;40.89
11712;BME280;5912;51.034;6.984;2023-03-31T13:37:16;56306.25;;;-142.13;41.10
11712;BME280;5912;51.034;6.984;2023-03-31T13:48:12;56258.16;;;-142.13;40.98
11712;BME280;5912;51.034;6.984;2023-03-31T14:07:07;56248.16;;;-142.13;38.86
11712;BME280;5912;51.034;6.984;2023-03-31T14:09:35;56218.09;;;-142.13;38.60
11712;BME280;5912;51.034;6.984;2023-03-31T14:12:33;56220.13;;;-142.13;39.34
11712;BME280;5912;51.034;6.984;2023-03-31T14:14:59;56224.13;;;-142.13;38.42
11712;BME280;5912;51.034;6.984;2023-03-31T14:17:30;56220.13;;;-142.13;39.18
11712;BME280;5912;51.034;6.984;2023-03-31T14:20:20;56290.22;;;-142.13;38.69
11712;BME280;5912;51.034;6.984;2023-03-31T14:23:14;56222.13;;;-142.13;38.04
11712;BME280;5912;51.034;6.984;2023-03-31T14:26:09;56228.13;;;-142.13;38.81
11712;BME280;5912;51.034;6.984;2023-03-31T14:31:19;56252.16;;;-142.13;38.23
11712;BME280;5912;51.034;6.984;2023-03-31T14:34:19;56292.22;;;-142.13;38.14
11712;BME280;5912;51.034;6.984;2023-03-31T14:36:58;56290.22;;;-142.13;38.45
11712;BME280;5912;51.034;6.984;2023-03-31T14:39:28;56272.19;;;-142.13;38.74
11712;BME280;5912;51.034;6.984;2023-03-31T14:41:58;56306.25;;;-142.13;38.62
11712;BME280;5912;51.034;6.984;2023-03-31T14:44:24;56280.22;;;-142.13;38.45
11712;BME280;5912;51.034;6.984;2023-03-31T14:46:50;56298.22;;;-142.13;38.17
11712;BME280;5912;51.034;6.984;2023-03-31T14:51:44;56286.22;;;-142.13;38.94
11712;BME280;5912;51.034;6.984;2023-03-31T14:54:18;56316.25;;;-142.13;38.83
11712;BME280;5912;51.034;6.984;2023-03-31T14:56:54;56326.28;;;-142.13;38.72
11712;BME280;5912;51.034;6.984;2023-03-31T14:59:28;56264.19;;;-142.13;38.83
11712;BME280;5912;51.034;6.984;2023-03-31T15:01:55;56280.22;;;-142.13;38.98
11712;BME280;5912;51.034;6.984;2023-03-31T15:04:24;56312.25;;;-142.13;38.92
11712;BME280;5912;51.034;6.984;2023-03-31T15:06:51;56308.25;;;-142.13;39.49
11712;BME280;5912;51.034;6.984;2023-03-31T15:09:23;56300.25;;;-142.13;39.58
11712;BME280;5912;51.034;6.984;2023-03-31T15:11:56;56320.28;;;-142.13;39.36
11712;BME280;5912;51.034;6.984;2023-03-31T15:14:28;56296.22;;;-142.13;39.40
11712;BME280;5912;51.034;6.984;2023-03-31T15:16:53;56336.28;;;-142.13;39.55
11712;BME280;5912;51.034;6.984;2023-03-31T15:19:21;56336.28;;;-142.13;39.66
11712;BME280;5912;51.034;6.984;2023-03-31T15:24:33;56318.25;;;-142.13;40.38
11712;BME280;5912;51.034;6.984;2023-03-31T15:29:46;56304.25;;;-142.13;40.65
11712;BME280;5912;51.034;6.984;2023-03-31T15:32:24;56332.28;;;-142.13;41.59
11712;BME280;5912;51.034;6.984;2023-03-31T15:34:51;56324.28;;;-142.13;45.71
11712;BME280;5912;51.034;6.984;2023-03-31T15:37:25;56344.31;;;-142.13;48.97
11712;BME280;5912;51.034;6.984;2023-03-31T15:39:58;56318.25;;;-142.13;51.29
11712;BME280;5912;51.034;6.984;2023-03-31T15:42:25;56354.31;;;-142.13;53.28
11712;BME280;5912;51.034;6.984;2023-03-31T15:45:56;56358.34;;;-142.13;54.69
11712;BME280;5912;51.034;6.984;2023-03-31T15:56:23;56406.41;;;-142.13;60.39
11712;BME280;5912;51.034;6.984;2023-03-31T16:01:27;56376.34;;;-142.13;61.32